Time;durP1;ratioP1;P1;durP2;ratioP2;P2;SDS_P1;SDS_P2;PMS_P1;PMS_P2;Temp;Humidity;BMP_temperature;BMP_pressure;BME280_temperature;BME280_humidity;BME280_pressure;Samples;Min_cycle;Max_cycle;Signal;HPM_P1;HPM_P2
2023/10/17 00:01:44;;;;;;;;;;;;;;;6.28;69.01;92763.84;2068662;69;20160;-73
2023/10/17 00:06:43;;;;;;;7.57;3.90;;;;;;;6.25;66.82;92781.03;2065765;69;20237;-72
2023/10/17 00:09:10;;;;;;;7.80;3.53;;;;;;;6.07;69.26;92780.34;2065740;69;20179;-72
2023/10/17 00:11:51;;;;;;;6.78;3.90;;;;;;;6.13;68.51;92782.88;2069099;69;20251;-72
2023/10/17 00:14:17;;;;;;;12.27;4.10;;;;;;;6.10;68.47;92773.59;2066246;69;20212;-72
2023/10/17 00:16:47;;;;;;;7.65;3.90;;;;;;;6.01;68.80;92777.09;2065412;69;20519;-72
2023/10/17 00:19:18;;;;;;;6.85;3.85;;;;;;;6.11;66.91;92786.25;2065825;69;20167;-74
2023/10/17 00:21:45;;;;;;;7.03;3.38;;;;;;;6.08;68.66;92787.41;2068977;69;20160;-74
2023/10/17 00:24:11;;;;;;;10.45;4.00;;;;;;;5.83;69.73;92790.34;2068810;69;20619;-73
2023/10/17 00:26:39;;;;;;;7.60;4.07;;;;;;;5.91;68.45;92793.78;2068550;69;20547;-73
2023/10/17 00:29:10;;;;;;;5.93;3.45;;;;;;;5.73;68.76;92770.72;2068502;69;20148;-73
2023/10/17 00:31:38;;;;;;;7.82;3.67;;;;;;;5.84;68.51;92781.34;2065617;69;20683;-72
2023/10/17 00:34:13;;;;;;;6.85;3.95;;;;;;;5.83;68.83;92779.88;2065603;69;20144;-71
2023/10/17 00:36:48;;;;;;;8.65;3.40;;;;;;;5.83;68.78;92777.09;2068700;69;20151;-74
2023/10/17 00:39:29;;;;;;;7.75;3.50;;;;;;;5.65;69.81;92774.91;2069105;69;20164;-74
2023/10/17 00:42:09;;;;;;;7.53;3.65;;;;;;;5.27;71.62;92770.50;2069156;69;20523;-73
2023/10/17 00:44:39;;;;;;;6.40;3.67;;;;;;;5.45;70.52;92769.19;2065673;69;20160;-73
2023/10/17 00:47:22;;;;;;;5.72;3.53;;;;;;;5.40;70.78;92758.25;2068969;69;20595;-73
2023/10/17 00:49:50;;;;;;;5.10;3.20;;;;;;;5.46;70.86;92765.09;2065753;69;20187;-73
2023/10/17 00:52:32;;;;;;;5.53;3.30;;;;;;;5.53;70.20;92766.28;2068774;69;20164;-73
2023/10/17 00:54:59;;;;;;;6.40;3.20;;;;;;;5.48;69.88;92772.88;2065660;69;20606;-73
2023/10/17 00:57:29;;;;;;;6.18;3.25;;;;;;;5.45;69.74;92768.44;2068628;69;20226;-74
2023/10/17 01:03:05;;;;;;;6.82;3.80;;;;;;;5.48;69.51;92773.59;2064383;69;20187;-73
2023/10/17 01:05:57;;;;;;;11.40;3.53;;;;;;;5.38;69.88;92758.09;2069023;69;20161;-73
2023/10/17 01:08:53;;;;;;;6.43;3.30;;;;;;;5.14;70.60;92748.50;2068993;69;20212;-73
2023/10/17 01:11:22;;;;;;;9.93;3.17;;;;;;;5.37;70.76;92765.00;2068991;69;20602;-72
2023/10/17 01:13:54;;;;;;;5.80;3.22;;;;;;;5.41;70.00;92757.69;2065260;69;20159;-72
2023/10/17 01:16:28;;;;;;;7.10;3.40;;;;;;;5.25;70.04;92740.38;2065518;69;20153;-73
2023/10/17 01:19:05;;;;;;;6.68;2.92;;;;;;;5.33;69.70;92754.97;2065734;69;20151;-73
2023/10/17 01:21:41;;;;;;;7.28;3.08;;;;;;;5.10;70.79;92740.53;2065716;69;20133;-73
2023/10/17 01:24:19;;;;;;;7.55;3.38;;;;;;;5.28;69.75;92738.50;2065831;69;20168;-74
2023/10/17 01:26:56;;;;;;;7.38;3.28;;;;;;;5.30;69.05;92741.44;2062930;69;20180;-74
2023/10/17 01:29:24;;;;;;;5.72;2.97;;;;;;;5.27;68.95;92748.19;2065546;69;20168;-73
2023/10/17 01:31:50;;;;;;;7.63;3.30;;;;;;;5.25;69.31;92745.94;2065342;69;20133;-74
2023/10/17 01:34:20;;;;;;;4.38;2.60;;;;;;;5.23;69.05;92734.63;2065158;69;20192;-73
2023/10/17 01:36:50;;;;;;;4.95;2.88;;;;;;;5.23;69.07;92743.00;2065324;69;20153;-73
2023/10/17 01:39:17;;;;;;;5.50;2.88;;;;;;;5.12;69.17;92734.38;2065878;69;20181;-73
2023/10/17 01:41:46;;;;;;;7.70;3.17;;;;;;;5.04;69.91;92731.66;2065589;69;20183;-73
2023/10/17 01:44:12;;;;;;;5.15;2.78;;;;;;;4.95;69.47;92712.78;2065666;69;20133;-74
2023/10/17 01:46:38;;;;;;;5.68;2.90;;;;;;;5.00;68.93;92712.56;2062587;69;20164;-73
2023/10/17 01:49:10;;;;;;;5.97;2.58;;;;;;;5.08;69.76;92706.88;2065936;69;20133;-72
2023/10/17 01:51:36;;;;;;;6.77;3.37;;;;;;;5.03;69.09;92705.81;2066073;69;20169;-74
2023/10/17 01:54:12;;;;;;;5.28;2.83;;;;;;;5.01;69.85;92702.13;2065393;69;20179;-74
2023/10/17 01:56:40;;;;;;;4.72;2.60;;;;;;;4.98;69.86;92700.50;2065774;69;20243;-73
2023/10/17 01:59:13;;;;;;;4.28;2.65;;;;;;;4.98;69.56;92703.28;2065553;69;20177;-74
2023/10/17 02:01:42;;;;;;;6.15;2.95;;;;;;;4.93;69.39;92695.91;2065444;69;20643;-73
2023/10/17 02:04:18;;;;;;;6.35;2.83;;;;;;;4.73;70.37;92681.78;2062833;69;20141;-72
2023/10/17 02:06:50;;;;;;;6.28;2.70;;;;;;;4.84;70.40;92695.22;2062818;69;20173;-72
2023/10/17 02:12:16;;;;;;;6.15;2.60;;;;;;;4.85;69.87;92707.88;2059285;69;20157;-72
2023/10/17 02:14:43;;;;;;;6.32;3.35;;;;;;;4.68;70.00;92702.28;2066013;69;20133;-73
2023/10/17 02:17:09;;;;;;;5.32;2.70;;;;;;;4.68;70.95;92699.50;2062429;69;20163;-72
2023/10/17 02:19:38;;;;;;;5.90;3.40;;;;;;;4.51;71.47;92705.06;2065698;69;20212;-72
2023/10/17 02:22:09;;;;;;;8.40;3.35;;;;;;;4.65;70.70;92703.44;2065682;69;20149;-73
2023/10/17 02:24:36;;;;;;;4.35;2.90;;;;;;;4.67;69.71;92702.84;2062421;69;20593;-72
2023/10/17 02:27:06;;;;;;;5.97;3.15;;;;;;;4.62;69.71;92704.56;2065465;69;20177;-72
2023/10/17 02:29:39;;;;;;;5.45;2.85;;;;;;;4.56;70.33;92704.81;2065218;69;20156;-73
2023/10/17 02:32:11;;;;;;;8.20;2.92;;;;;;;4.58;70.14;92712.59;2062065;69;20161;-73
2023/10/17 02:34:38;;;;;;;7.03;3.17;;;;;;;4.55;71.06;92724.91;2064735;69;20185;-73
2023/10/17 02:37:10;;;;;;;6.18;2.90;;;;;;;4.60;69.85;92726.72;2065392;69;20148;-73
2023/10/17 02:39:37;;;;;;;5.60;3.20;;;;;;;4.54;70.43;92726.97;2064906;69;20112;-73
2023/10/17 02:42:08;;;;;;;5.68;2.97;;;;;;;4.55;70.87;92736.06;2064846;69;20505;-73
2023/10/17 02:44:40;;;;;;;4.97;2.95;;;;;;;4.54;70.78;92740.16;2064827;69;20153;-73
2023/10/17 02:47:12;;;;;;;5.13;2.97;;;;;;;4.61;70.82;92735.81;2064422;69;20145;-73
2023/10/17 02:49:39;;;;;;;5.40;2.90;;;;;;;4.51;71.03;92732.94;2064960;69;20152;-73
2023/10/17 02:52:05;;;;;;;5.00;2.83;;;;;;;4.39;71.04;92715.19;2064865;69;20633;-73
2023/10/17 02:54:52;;;;;;;6.07;3.00;;;;;;;4.50;70.51;92720.31;2065711;69;20184;-73
2023/10/17 02:57:23;;;;;;;5.45;3.13;;;;;;;4.45;70.03;92721.28;2064748;69;20163;-73
2023/10/17 02:59:51;;;;;;;5.78;2.70;;;;;;;4.41;70.82;92729.31;2065427;69;20141;-72
2023/10/17 03:02:20;;;;;;;4.70;2.80;;;;;;;4.32;71.51;92728.63;2064657;69;20571;-72
2023/10/17 03:04:46;;;;;;;5.07;2.70;;;;;;;4.33;70.90;92734.94;2065280;69;20244;-73
2023/10/17 03:07:12;;;;;;;4.80;2.45;;;;;;;4.32;71.44;92739.03;2065180;69;20152;-73
2023/10/17 03:09:43;;;;;;;5.15;2.45;;;;;;;4.34;70.87;92736.41;2061834;69;20160;-72
2023/10/17 03:12:19;;;;;;;4.15;2.42;;;;;;;4.29;70.25;92729.75;2065590;69;20151;-73
2023/10/17 03:17:11;;;;;;;5.38;2.70;;;;;;;4.37;69.18;92740.13;2068436;69;20140;-73
2023/10/17 03:19:38;;;;;;;5.53;2.10;;;;;;;4.43;70.12;92744.13;2068460;69;20176;-73
2023/10/17 03:22:19;;;;;;;3.85;2.38;;;;;;;4.34;70.08;92751.09;2065184;69;20627;-73
2023/10/17 03:24:47;;;;;;;5.65;2.65;;;;;;;4.30;70.23;92744.44;2065273;69;20231;-73
2023/10/17 03:30:14;;;;;;;3.72;2.47;;;;;;;4.22;70.65;92743.78;2065249;69;20218;-72
2023/10/17 03:33:05;;;;;;;6.70;3.00;;;;;;;4.20;70.50;92747.09;2065315;69;20148;-73
2023/10/17 03:38:17;;;;;;;3.38;2.20;;;;;;;4.19;70.37;92736.53;2068538;69;20156;-73
2023/10/17 03:40:53;;;;;;;6.60;2.50;;;;;;;4.16;70.94;92748.81;2065165;69;20140;-73
2023/10/17 03:43:24;;;;;;;5.25;2.67;;;;;;;4.14;70.04;92748.66;2065298;69;20140;-73
2023/10/17 03:45:56;;;;;;;5.50;2.97;;;;;;;4.08;70.73;92744.03;2068500;69;20172;-73
2023/10/17 03:48:23;;;;;;;6.15;2.50;;;;;;;4.10;70.65;92749.03;2065308;69;20152;-73
2023/10/17 03:53:42;;;;;;;5.97;3.00;;;;;;;4.13;71.05;92752.75;2068807;69;20228;-73
2023/10/17 03:56:11;;;;;;;11.32;6.38;;;;;;;4.13;71.21;92752.75;2062678;69;20234;-73
2023/10/17 03:58:49;;;;;;;9.15;5.25;;;;;;;4.13;70.85;92749.97;2068529;69;20164;-74
2023/10/17 04:01:18;;;;;;;12.18;5.50;;;;;;;4.12;70.71;92762.41;2068525;69;20144;-74
2023/10/17 04:03:45;;;;;;;8.80;5.43;;;;;;;4.13;70.62;92755.53;2065255;69;20201;-74
2023/10/17 04:08:49;;;;;;;9.00;5.20;;;;;;;4.08;70.26;92754.44;2068145;69;20187;-74
2023/10/17 04:11:19;;;;;;;7.38;4.47;;;;;;;4.10;70.36;92759.44;2064818;69;20187;-74
2023/10/17 04:13:49;;;;;;;6.72;3.30;;;;;;;4.01;70.73;92749.66;2064463;69;20133;-74
2023/10/17 04:16:26;;;;;;;9.20;5.60;;;;;;;3.83;73.50;92757.94;2065362;69;20616;-74
2023/10/17 04:19:00;;;;;;;9.60;5.40;;;;;;;3.90;72.15;92755.69;2065341;69;20218;-74
2023/10/17 04:24:05;;;;;;;10.45;5.53;;;;;;;3.90;71.58;92759.22;2065266;69;20299;-74
2023/10/17 04:26:34;;;;;;;12.23;6.45;;;;;;;3.84;71.02;92753.09;2065305;69;20620;-74
2023/10/17 04:29:11;;;;;;;11.77;6.57;;;;;;;3.89;71.05;92765.31;2065064;69;20152;-74
2023/10/17 04:31:38;;;;;;;10.77;6.20;;;;;;;3.83;71.17;92746.78;2065083;69;20191;-74
2023/10/17 04:34:06;;;;;;;13.18;5.97;;;;;;;3.86;70.80;92746.97;2065122;69;20203;-73
2023/10/17 04:36:37;;;;;;;11.63;5.97;;;;;;;3.86;70.57;92744.19;2065293;69;20153;-74
2023/10/17 04:39:35;;;;;;;11.40;6.75;;;;;;;3.80;71.75;92761.88;2065231;69;20152;-73
2023/10/17 04:44:50;;;;;;;8.07;4.68;;;;;;;3.86;70.42;92758.13;2065448;69;20616;-74
2023/10/17 04:49:52;;;;;;;9.88;5.00;;;;;;;3.76;70.95;92755.22;2065810;69;20187;-74
2023/10/17 04:52:21;;;;;;;8.85;3.72;;;;;;;3.68;70.82;92754.50;2065801;69;20207;-74
2023/10/17 04:54:53;;;;;;;6.90;4.00;;;;;;;3.74;71.15;92755.03;2065528;69;20335;-73
2023/10/17 04:57:19;;;;;;;10.50;4.57;;;;;;;3.74;72.07;92749.44;2065359;69;20145;-73
2023/10/17 06:18:59;;;;;;;17.85;9.65;;;;;;;4.17;71.31;92778.16;2069407;69;20155;-72
2023/10/17 06:21:35;;;;;;;16.52;8.75;;;;;;;4.26;70.83;92785.88;2066075;69;20548;-72
2023/10/17 06:24:33;;;;;;;16.50;9.35;;;;;;;4.30;71.17;92781.41;2069439;69;20145;-75
2023/10/17 06:27:10;;;;;;;12.02;7.50;;;;;;;4.27;70.90;92776.97;2069015;69;20214;-73
2023/10/17 06:34:52;;;;;;;24.35;12.65;;;;;;;4.57;71.07;92791.97;2068785;69;20218;-72
2023/10/17 06:37:20;;;;;;;24.63;10.98;;;;;;;4.66;70.38;92794.13;2069259;69;20263;-72
2023/10/17 06:39:47;;;;;;;18.02;10.07;;;;;;;4.64;70.26;92799.56;2069151;69;20168;-73
2023/10/17 06:42:27;;;;;;;17.58;11.05;;;;;;;4.80;69.27;92792.53;2069068;69;20144;-72
2023/10/17 06:45:09;;;;;;;23.30;11.10;;;;;;;4.80;69.60;92789.72;2069140;69;20271;-73
2023/10/17 06:47:47;;;;;;;19.83;10.57;;;;;;;4.84;69.60;92789.34;2066416;69;20165;-74
2023/10/17 06:52:40;;;;;;;18.30;8.93;;;;;;;4.90;70.32;92794.69;2069219;69;20145;-72
2023/10/17 06:55:20;;;;;;;17.60;10.20;;;;;;;4.96;70.33;92800.78;2069225;69;20121;-72
2023/10/17 06:57:50;;;;;;;16.65;9.85;;;;;;;5.08;69.98;92791.34;2069222;69;20175;-72
2023/10/17 07:00:42;;;;;;;20.00;11.15;;;;;;;5.12;69.58;92788.13;2069329;69;20164;-72
2023/10/17 07:03:09;;;;;;;19.77;10.32;;;;;;;5.14;69.73;92782.75;2068944;69;20290;-75
2023/10/17 07:05:36;;;;;;;23.05;14.10;;;;;;;5.29;69.97;92790.22;2069140;69;20145;-72
2023/10/17 07:08:02;;;;;;;23.60;13.65;;;;;;;5.23;69.46;92787.66;2069090;69;20144;-72
2023/10/17 07:13:39;;;;;;;18.40;11.35;;;;;;;5.29;69.45;92804.16;2068747;69;20153;-72
2023/10/17 07:16:11;;;;;;;17.65;10.13;;;;;;;5.39;68.74;92796.59;2069032;69;20597;-72
2023/10/17 07:18:43;;;;;;;17.75;9.10;;;;;;;5.35;69.22;92804.66;2065752;69;20172;-72
2023/10/17 07:23:46;;;;;;;17.92;10.07;;;;;;;5.45;65.73;92780.34;2068725;69;20155;-72
2023/10/17 07:28:55;;;;;;;15.65;8.23;;;;;;;5.17;68.68;92780.84;2068799;69;20600;-72
2023/10/17 07:31:25;;;;;;;15.88;8.63;;;;;;;5.49;68.61;92782.72;2069164;69;20151;-73
2023/10/17 07:34:16;;;;;;;9.77;6.30;;;;;;;5.49;68.25;92775.06;2065883;69;20140;-72
2023/10/17 07:36:43;;;;;;;8.85;4.78;;;;;;;5.63;66.73;92769.16;2068913;69;20154;-74
2023/10/17 07:39:29;;;;;;;6.95;5.10;;;;;;;5.64;66.55;92754.63;2069113;69;20195;-74
2023/10/17 07:41:55;;;;;;;7.13;4.72;;;;;;;5.78;64.81;92766.19;2069043;69;20565;-74
2023/10/17 07:44:25;;;;;;;9.13;4.68;;;;;;;5.81;66.75;92759.44;2069198;69;20183;-73
2023/10/17 07:47:41;;;;;;;7.57;3.97;;;;;;;5.84;66.98;92758.28;2069100;69;20244;-73
2023/10/17 07:49:47;;;;;;;7.78;3.60;;;;;;;5.98;66.79;92753.09;2067550;69;20156;-74
2023/10/17 07:52:15;;;;;;;7.20;2.95;;;;;;;6.05;65.94;92755.78;2069232;69;20160;-72
2023/10/17 07:57:51;;;;;;;11.35;5.80;;;;;;;5.92;63.88;92744.97;2057648;69;20142;-75
2023/10/17 08:00:38;;;;;;;8.70;4.85;;;;;;;5.98;64.60;92758.69;2058089;69;20636;-72
2023/10/17 08:03:17;;;;;;;8.32;4.68;;;;;;;6.07;64.24;92749.59;2062305;69;20596;-74
2023/10/17 08:06:04;;;;;;;10.02;5.32;;;;;;;6.47;64.65;92735.22;2065482;69;20148;-76
2023/10/17 08:08:34;;;;;;;10.32;6.68;;;;;;;6.52;65.34;92739.78;2069292;69;20179;-74
2023/10/17 08:11:06;;;;;;;11.48;5.05;;;;;;;6.72;64.72;92748.97;2068630;69;20144;-75
2023/10/17 08:13:35;;;;;;;8.68;5.45;;;;;;;7.41;64.61;92738.59;2068644;69;20152;-74
2023/10/17 08:16:10;;;;;;;9.15;5.15;;;;;;;7.84;65.22;92728.41;2069056;69;20144;-73
2023/10/17 08:18:42;;;;;;;12.63;5.50;;;;;;;8.22;63.13;92735.97;2065581;69;20155;-73
2023/10/17 08:23:54;;;;;;;11.55;5.03;;;;;;;9.02;60.43;92739.31;2063624;69;20143;-72
2023/10/17 08:26:22;;;;;;;8.38;4.80;;;;;;;9.48;59.18;92737.38;2069206;69;20575;-74
2023/10/17 08:28:50;;;;;;;7.22;4.78;;;;;;;9.77;58.16;92742.78;2068742;69;20164;-74
2023/10/17 08:31:35;;;;;;;8.50;4.95;;;;;;;9.71;55.15;92743.09;2062933;69;20160;-74
2023/10/17 08:36:42;;;;;;;9.18;5.32;;;;;;;10.93;55.69;92747.16;2068970;69;20164;-74
2023/10/17 08:42:05;;;;;;;7.47;4.55;;;;;;;11.10;54.15;92734.78;2068796;69;20136;-75
2023/10/17 08:44:34;;;;;;;7.30;4.75;;;;;;;11.38;54.07;92733.63;2068845;69;20290;-75
2023/10/17 08:47:01;;;;;;;5.18;3.25;;;;;;;11.94;51.58;92729.81;2068909;69;20206;-74
2023/10/17 08:49:28;;;;;;;4.97;3.13;;;;;;;12.49;51.97;92726.44;2068915;69;20235;-75
2023/10/17 08:51:57;;;;;;;5.80;3.33;;;;;;;12.57;50.88;92724.06;2068670;69;20658;-73
2023/10/17 08:54:30;;;;;;;4.47;2.92;;;;;;;12.67;50.24;92718.22;2068768;69;20660;-73
2023/10/17 08:56:59;;;;;;;5.40;3.20;;;;;;;13.00;49.06;92723.47;2068851;69;20132;-75
2023/10/17 09:02:32;;;;;;;3.95;2.80;;;;;;;13.52;49.52;92721.94;2068771;69;20675;-73
2023/10/17 09:05:11;;;;;;;3.53;2.58;;;;;;;13.94;48.84;92709.13;2068510;69;20202;-74
2023/10/17 09:07:43;;;;;;;4.70;2.70;;;;;;;14.09;47.52;92704.16;2068071;69;20176;-75
2023/10/17 09:10:39;;;;;;;3.43;2.30;;;;;;;14.64;46.61;92704.66;2068880;69;20141;-74
2023/10/17 09:15:56;;;;;;;4.10;2.20;;;;;;;15.03;45.41;92691.47;2068840;69;20644;-74
2023/10/17 09:18:31;;;;;;;5.70;2.17;;;;;;;15.58;45.00;92688.16;2068633;69;20147;-73
2023/10/17 09:21:03;;;;;;;3.60;2.50;;;;;;;15.75;46.33;92682.53;2065988;69;20164;-72
2023/10/17 09:23:30;;;;;;;5.15;2.15;;;;;;;15.62;44.12;92694.00;2068107;69;20164;-72
2023/10/17 09:26:01;;;;;;;5.72;1.98;;;;;;;16.18;44.17;92692.09;2068906;69;20157;-75
2023/10/17 09:28:28;;;;;;;3.10;1.80;;;;;;;17.01;42.65;92697.41;2068940;69;20176;-75
2023/10/17 09:31:09;;;;;;;4.20;2.30;;;;;;;15.78;43.80;92702.50;2069375;69;20140;-73
2023/10/17 09:33:52;;;;;;;2.92;1.80;;;;;;;16.65;42.52;92694.63;2068905;69;20136;-73
2023/10/17 09:36:18;;;;;;;2.70;2.00;;;;;;;16.45;42.24;92693.84;2069343;69;20176;-75
2023/10/17 09:38:46;;;;;;;3.75;2.08;;;;;;;16.74;41.61;92679.38;2069493;69;20140;-74
2023/10/17 09:41:20;;;;;;;5.13;2.13;;;;;;;17.54;41.03;92680.09;2069666;69;20287;-72
2023/10/17 09:43:51;;;;;;;4.13;2.20;;;;;;;16.60;42.39;92678.06;2069527;69;20218;-72
2023/10/17 09:46:24;;;;;;;5.30;2.15;;;;;;;17.64;41.89;92676.13;2069552;69;20213;-73
2023/10/17 09:48:52;;;;;;;4.13;2.30;;;;;;;17.29;40.11;92672.09;2070960;69;20186;-74
2023/10/17 09:51:22;;;;;;;3.55;1.92;;;;;;;18.77;39.69;92664.16;2069545;69;20160;-75
2023/10/17 09:53:58;;;;;;;2.97;1.80;;;;;;;17.49;39.12;92661.44;2068897;69;20160;-72
2023/10/17 09:56:32;;;;;;;3.67;1.77;;;;;;;16.84;41.34;92655.53;2066029;69;20148;-73
2023/10/17 09:59:05;;;;;;;4.20;1.73;;;;;;;18.70;39.76;92649.00;2068966;69;20136;-74
2023/10/17 10:01:34;;;;;;;7.70;2.53;;;;;;;18.44;39.74;92637.47;2068995;69;20140;-73
2023/10/17 10:04:01;;;;;;;5.07;2.30;;;;;;;19.02;37.65;92625.66;2069489;69;20623;-73
2023/10/17 10:06:32;;;;;;;4.00;2.30;;;;;;;18.68;38.44;92631.78;2066137;69;20172;-73
2023/10/17 10:09:13;;;;;;;3.25;2.20;;;;;;;20.26;38.26;92637.47;2069301;69;20225;-74
2023/10/17 10:11:48;;;;;;;3.08;2.03;;;;;;;20.22;37.02;92639.50;2069694;69;20619;-73
2023/10/17 10:14:15;;;;;;;4.97;1.95;;;;;;;19.89;36.27;92644.44;2062488;69;20592;-74
2023/10/17 10:17:00;;;;;;;2.97;1.90;;;;;;;19.43;36.54;92641.78;2062180;69;20153;-73
2023/10/17 10:19:41;;;;;;;6.00;1.90;;;;;;;20.96;35.37;92636.91;2062378;69;20169;-73
2023/10/17 10:22:07;;;;;;;3.78;1.55;;;;;;;22.51;33.68;92627.63;2062624;69;20264;-73
2023/10/17 10:24:36;;;;;;;4.55;2.20;;;;;;;22.86;33.45;92646.03;2062713;69;20149;-74
2023/10/17 10:27:08;;;;;;;2.47;1.98;;;;;;;23.28;32.23;92639.47;2062069;69;20157;-78
2023/10/17 10:29:34;;;;;;;2.97;1.52;;;;;;;22.90;31.78;92642.53;2062743;69;20152;-75
2023/10/17 10:32:06;;;;;;;4.30;1.70;;;;;;;23.03;31.13;92630.53;2062661;69;20156;-73
2023/10/17 10:34:35;;;;;;;2.45;1.70;;;;;;;24.38;30.08;92625.56;2062021;69;20211;-77
2023/10/17 10:37:03;;;;;;;3.88;1.80;;;;;;;24.02;31.47;92620.91;2062576;69;20723;-75
2023/10/17 10:39:30;;;;;;;5.35;2.15;;;;;;;24.50;29.77;92617.72;2064442;69;20229;-79
2023/10/17 10:42:01;;;;;;;5.07;1.90;;;;;;;23.90;29.16;92609.28;2063582;69;20597;-74
2023/10/17 10:44:27;;;;;;;5.18;1.83;;;;;;;25.88;29.70;92614.13;2066588;69;20156;-74
2023/10/17 10:46:54;;;;;;;1.95;1.60;;;;;;;25.27;29.88;92608.88;2065906;69;20644;-73
2023/10/17 10:49:30;;;;;;;3.28;1.75;;;;;;;26.46;29.58;92612.78;2066101;69;20223;-76
2023/10/17 10:51:58;;;;;;;1.98;1.60;;;;;;;26.80;27.97;92599.78;2066077;69;20161;-74
2023/10/17 10:54:27;;;;;;;4.57;1.80;;;;;;;26.78;29.44;92599.78;2065340;69;20145;-74
2023/10/17 10:56:55;;;;;;;5.15;2.30;;;;;;;27.90;26.42;92611.00;2066654;69;20132;-74
2023/10/17 10:59:23;;;;;;;4.57;1.73;;;;;;;29.45;26.24;92609.75;2065862;69;20668;-73
2023/10/17 11:01:50;;;;;;;1.95;1.55;;;;;;;30.81;25.54;92615.19;2066021;69;20210;-74
2023/10/17 11:04:16;;;;;;;4.22;1.73;;;;;;;31.67;24.07;92604.94;2065983;69;20164;-72
2023/10/17 11:06:41;;;;;;;5.38;1.73;;;;;;;32.88;23.48;92606.63;2065333;69;20156;-73
2023/10/17 11:09:09;;;;;;;3.13;1.58;;;;;;;32.83;22.92;92587.81;2066564;69;20160;-76
2023/10/17 11:11:53;;;;;;;2.13;1.58;;;;;;;33.78;21.73;92589.72;2065970;69;20593;-74
2023/10/17 11:14:21;;;;;;;2.25;1.80;;;;;;;32.11;22.87;92577.81;2065448;69;20169;-75
2023/10/17 11:16:50;;;;;;;2.88;1.85;;;;;;;33.24;22.28;92575.84;2065144;69;20232;-74
2023/10/17 11:19:21;;;;;;;3.63;1.55;;;;;;;32.71;22.26;92568.41;2065269;69;20148;-75
2023/10/17 11:21:58;;;;;;;2.95;1.67;;;;;;;32.93;21.46;92558.44;2065902;69;20149;-78
2023/10/17 11:24:26;;;;;;;2.08;1.40;;;;;;;30.64;22.52;92550.81;2066040;69;20273;-79
2023/10/17 11:26:53;;;;;;;2.35;1.52;;;;;;;32.58;22.08;92549.84;2065374;69;20152;-73
2023/10/17 11:29:25;;;;;;;4.13;1.67;;;;;;;33.36;22.60;92542.72;2065223;69;20666;-77
2023/10/17 11:31:53;;;;;;;2.50;1.65;;;;;;;32.70;20.49;92534.94;2065826;69;20153;-74
2023/10/17 11:34:29;;;;;;;2.20;1.55;;;;;;;35.99;19.57;92563.56;2065539;69;20125;-74
2023/10/17 11:37:02;;;;;;;2.38;1.60;;;;;;;35.92;20.24;92555.75;2066033;69;20145;-77
2023/10/17 11:39:38;;;;;;;1.90;1.25;;;;;;;36.96;19.89;92551.75;2066055;69;20169;-74
2023/10/17 11:42:05;;;;;;;4.32;1.20;;;;;;;38.30;18.36;92559.84;2066049;69;20167;-76
2023/10/17 11:44:31;;;;;;;2.55;1.60;;;;;;;33.77;19.47;92538.66;2065836;69;20258;-74
2023/10/17 11:47:03;;;;;;;3.08;1.40;;;;;;;35.42;19.71;92542.19;2065668;69;20157;-74
2023/10/17 11:49:39;;;;;;;2.23;1.37;;;;;;;39.43;18.16;92540.44;2065427;69;20616;-74
2023/10/17 11:52:10;;;;;;;1.88;1.48;;;;;;;34.82;19.19;92528.13;2065280;69;20269;-74
2023/10/17 11:54:55;;;;;;;2.97;1.25;;;;;;;39.35;18.20;92533.44;2065825;69;20145;-75
2023/10/17 11:57:25;;;;;;;1.73;1.10;;;;;;;39.96;16.83;92547.25;2065542;69;20235;-74
2023/10/17 11:59:57;;;;;;;5.75;1.13;;;;;;;38.69;15.67;92523.47;2065625;69;20234;-75
2023/10/17 12:02:23;;;;;;;1.67;1.20;;;;;;;39.36;17.73;92529.00;2065552;69;20172;-75
2023/10/17 12:04:49;;;;;;;3.22;1.20;;;;;;;33.46;18.68;92516.22;2067834;69;20147;-77
2023/10/17 12:07:15;;;;;;;2.40;1.08;;;;;;;35.60;18.68;92508.59;2064965;69;20157;-78
2023/10/17 12:09:43;;;;;;;3.38;0.95;;;;;;;34.92;17.87;92504.41;2065545;69;20239;-74
2023/10/17 12:12:09;;;;;;;1.50;1.02;;;;;;;37.94;17.40;92506.41;2066490;69;20563;-74
2023/10/17 12:14:36;;;;;;;2.15;1.00;;;;;;;34.63;18.68;92487.81;2072083;69;20124;-80
2023/10/17 12:17:03;;;;;;;1.80;1.00;;;;;;;34.70;19.05;92497.09;2072166;69;20220;-77
2023/10/17 12:19:29;;;;;;;2.75;1.10;;;;;;;33.34;19.64;92481.50;2072263;69;20153;-78
2023/10/17 12:22:00;;;;;;;2.00;1.15;;;;;;;33.87;19.45;92485.81;2072280;69;20147;-75
2023/10/17 12:24:34;;;;;;;1.70;1.20;;;;;;;33.35;19.92;92480.03;2072390;69;20596;-75
2023/10/17 12:27:06;;;;;;;2.72;1.20;;;;;;;34.34;18.79;92484.38;2072576;69;20159;-77
2023/10/17 12:29:34;;;;;;;;;;;;;;;31.35;20.27;92468.13;2072505;69;20600;-75
2023/10/17 12:32:01;;;;;;;2.10;1.27;;;;;;;31.33;21.54;92471.06;2069135;69;20052;-73
2023/10/17 12:34:28;;;;;;;2.13;1.20;;;;;;;31.59;20.99;92469.78;2072169;69;20229;-74
2023/10/17 12:36:54;;;;;;;3.60;1.23;;;;;;;31.29;21.23;92459.53;2072586;69;20152;-74
2023/10/17 12:39:21;;;;;;;2.70;1.15;;;;;;;31.38;22.04;92460.81;2072560;69;20633;-76
2023/10/17 12:41:48;;;;;;;2.78;1.15;;;;;;;31.54;21.98;92456.09;2071905;69;20142;-78
2023/10/17 12:44:19;;;;;;;2.95;1.17;;;;;;;30.32;22.38;92454.06;2072086;69;20199;-74
2023/10/17 12:46:46;;;;;;;2.22;1.60;;;;;;;30.83;22.44;92455.34;2072163;69;20240;-75
2023/10/17 12:49:12;;;;;;;2.15;1.23;;;;;;;29.54;23.24;92457.41;2072268;69;20239;-75
2023/10/17 12:51:39;;;;;;;3.30;1.50;;;;;;;27.04;25.34;92443.03;2072153;69;20622;-73
2023/10/17 12:54:07;;;;;;;2.13;1.55;;;;;;;27.42;24.53;92445.00;2072538;69;20184;-76
2023/10/17 12:56:36;;;;;;;2.72;1.30;;;;;;;27.63;24.65;92434.03;2072124;69;20148;-74
2023/10/17 12:59:12;;;;;;;3.58;1.38;;;;;;;28.10;25.25;92434.41;2072063;69;20204;-77
2023/10/17 13:01:44;;;;;;;3.20;1.30;;;;;;;29.02;24.12;92427.66;2069246;69;20141;-75
2023/10/17 13:04:11;;;;;;;2.58;1.35;;;;;;;30.62;23.73;92438.28;2072873;69;20182;-75
2023/10/17 13:06:38;;;;;;;2.10;1.20;;;;;;;29.15;24.52;92444.91;2072829;69;20171;-74
2023/10/17 13:09:04;;;;;;;3.40;1.20;;;;;;;26.95;25.58;92433.69;2072895;69;20140;-74
2023/10/17 13:11:30;;;;;;;1.90;1.30;;;;;;;26.67;27.24;92437.41;2072847;69;20154;-73
2023/10/17 13:14:00;;;;;;;6.60;1.70;;;;;;;27.45;26.36;92434.16;2072559;69;20188;-74
2023/10/17 13:16:29;;;;;;;4.45;1.45;;;;;;;27.54;26.56;92439.16;2069272;69;20179;-73
2023/10/17 13:18:56;;;;;;;4.20;1.38;;;;;;;26.67;26.11;92440.31;2072583;69;20577;-73
2023/10/17 13:21:23;;;;;;;2.42;1.83;;;;;;;26.02;27.33;92432.47;2072646;69;20176;-75
2023/10/17 13:23:49;;;;;;;2.70;1.48;;;;;;;23.57;29.73;92437.25;2072490;69;20164;-76
2023/10/17 13:26:22;;;;;;;2.42;1.70;;;;;;;23.76;29.37;92435.28;2069237;69;20148;-76
2023/10/17 13:28:47;;;;;;;3.05;1.60;;;;;;;23.18;30.82;92429.72;2072519;69;20140;-73
2023/10/17 13:31:15;;;;;;;1.98;1.50;;;;;;;23.22;31.08;92432.63;2072586;69;20197;-73
2023/10/17 13:33:45;;;;;;;3.42;1.70;;;;;;;23.58;31.16;92435.81;2072467;69;20154;-72
2023/10/17 13:36:11;;;;;;;3.05;2.00;;;;;;;22.40;31.79;92431.69;2072827;69;20160;-73
2023/10/17 13:38:38;;;;;;;3.08;2.00;;;;;;;22.42;31.95;92431.03;2072323;69;20144;-75
2023/10/17 13:41:11;;;;;;;5.13;2.05;;;;;;;20.56;34.41;92420.16;2072864;69;20136;-74
2023/10/17 13:43:41;;;;;;;4.45;2.30;;;;;;;21.31;33.97;92412.22;2072457;69;20604;-73
2023/10/17 13:46:13;;;;;;;3.78;2.03;;;;;;;21.95;32.84;92424.66;2069180;69;20140;-73
2023/10/17 13:48:40;;;;;;;2.65;1.90;;;;;;;21.51;33.06;92429.00;2069259;69;20156;-72
2023/10/17 13:51:09;;;;;;;4.53;2.00;;;;;;;20.99;34.07;92429.53;2072745;69;20584;-74
2023/10/17 13:53:36;;;;;;;10.38;2.20;;;;;;;19.77;35.83;92436.34;2072295;69;20187;-72
2023/10/17 13:56:11;;;;;;;4.13;1.73;;;;;;;21.16;35.00;92435.53;2072412;69;20152;-73
2023/10/17 13:58:38;;;;;;;4.57;1.70;;;;;;;21.47;33.41;92436.78;2072370;69;20154;-74
2023/10/17 14:01:27;;;;;;;4.13;2.50;;;;;;;21.23;32.59;92442.81;2072561;69;20163;-74
2023/10/17 14:03:51;;;;;;;10.63;7.22;;;;;;;21.14;32.73;92447.69;2069189;69;20582;-74
2023/10/17 14:06:17;;;;;;;9.93;4.53;;;;;;;20.71;32.47;92446.91;2072321;69;20140;-73
2023/10/17 14:08:42;;;;;;;7.63;3.50;;;;;;;20.62;32.57;92441.69;2072399;69;20225;-74
2023/10/17 14:11:08;;;;;;;7.45;4.55;;;;;;;20.10;33.64;92442.03;2072527;69;20172;-74
2023/10/17 14:13:33;;;;;;;7.88;4.50;;;;;;;20.57;33.72;92446.59;2072266;69;20159;-73
2023/10/17 14:16:00;;;;;;;5.63;3.30;;;;;;;20.18;34.61;92447.94;2072420;69;20229;-73
2023/10/17 14:18:39;;;;;;;4.15;2.60;;;;;;;19.78;35.33;92442.78;2072349;69;20183;-73